sensor_id;sensor_type;location;lat;lon;timestamp;P1;durP1;ratioP1;P2;durP2;ratioP2
4222;SDS011;2125;51.436;14.138;2023-02-12T00:01:35;25.87;;;7.13;;
4222;SDS011;2125;51.436;14.138;2023-02-12T00:04:01;6.73;;;4.03;;
4222;SDS011;2125;51.436;14.138;2023-02-12T00:06:28;25.07;;;6.40;;
4222;SDS011;2125;51.436;14.138;2023-02-12T00:08:55;35.17;;;12.07;;
4222;SDS011;2125;51.436;14.138;2023-02-12T00:11:23;14.20;;;4.30;;
4222;SDS011;2125;51.436;14.138;2023-02-12T00:13:51;35.77;;;10.30;;
4222;SDS011;2125;51.436;14.138;2023-02-12T00:16:19;18.03;;;6.67;;
4222;SDS011;2125;51.436;14.138;2023-02-12T00:18:49;17.87;;;5.03;;
4222;SDS011;2125;51.436;14.138;2023-02-12T00:21:17;31.67;;;7.00;;
4222;SDS011;2125;51.436;14.138;2023-02-12T00:23:44;28.20;;;8.10;;
4222;SDS011;2125;51.436;14.138;2023-02-12T00:26:11;24.67;;;8.07;;
4222;SDS011;2125;51.436;14.138;2023-02-12T00:28:40;34.43;;;9.80;;
4222;SDS011;2125;51.436;14.138;2023-02-12T00:31:07;7.90;;;4.90;;
4222;SDS011;2125;51.436;14.138;2023-02-12T00:33:35;9.43;;;3.97;;
4222;SDS011;2125;51.436;14.138;2023-02-12T00:36:03;29.43;;;8.70;;
4222;SDS011;2125;51.436;14.138;2023-02-12T00:38:31;9.57;;;4.27;;
4222;SDS011;2125;51.436;14.138;2023-02-12T00:40:58;20.03;;;7.10;;
4222;SDS011;2125;51.436;14.138;2023-02-12T00:43:24;35.73;;;11.53;;
4222;SDS011;2125;51.436;14.138;2023-02-12T00:45:51;9.47;;;2.90;;
4222;SDS011;2125;51.436;14.138;2023-02-12T00:48:17;20.70;;;7.83;;
4222;SDS011;2125;51.436;14.138;2023-02-12T00:50:44;18.37;;;6.73;;
4222;SDS011;2125;51.436;14.138;2023-02-12T00:53:14;23.87;;;8.43;;
4222;SDS011;2125;51.436;14.138;2023-02-12T00:55:41;29.40;;;9.17;;
4222;SDS011;2125;51.436;14.138;2023-02-12T00:58:08;24.67;;;8.80;;
4222;SDS011;2125;51.436;14.138;2023-02-12T01:00:35;40.93;;;12.50;;
4222;SDS011;2125;51.436;14.138;2023-02-12T01:03:02;26.67;;;8.03;;
4222;SDS011;2125;51.436;14.138;2023-02-12T01:05:29;26.27;;;7.40;;
4222;SDS011;2125;51.436;14.138;2023-02-12T01:07:56;11.67;;;4.23;;
4222;SDS011;2125;51.436;14.138;2023-02-12T01:10:24;42.13;;;11.53;;
4222;SDS011;2125;51.436;14.138;2023-02-12T01:12:51;18.40;;;8.00;;
4222;SDS011;2125;51.436;14.138;2023-02-12T01:15:18;35.30;;;11.83;;
4222;SDS011;2125;51.436;14.138;2023-02-12T01:17:44;22.03;;;9.20;;
4222;SDS011;2125;51.436;14.138;2023-02-12T01:20:12;30.60;;;9.60;;
4222;SDS011;2125;51.436;14.138;2023-02-12T01:22:41;35.97;;;10.27;;
4222;SDS011;2125;51.436;14.138;2023-02-12T01:25:08;24.57;;;7.40;;
4222;SDS011;2125;51.436;14.138;2023-02-12T01:27:36;36.27;;;11.13;;
4222;SDS011;2125;51.436;14.138;2023-02-12T01:30:03;22.47;;;7.17;;
4222;SDS011;2125;51.436;14.138;2023-02-12T01:32:30;38.73;;;10.67;;
4222;SDS011;2125;51.436;14.138;2023-02-12T01:34:57;38.23;;;11.17;;
4222;SDS011;2125;51.436;14.138;2023-02-12T01:37:24;26.50;;;8.60;;
4222;SDS011;2125;51.436;14.138;2023-02-12T01:39:50;29.30;;;8.00;;
4222;SDS011;2125;51.436;14.138;2023-02-12T01:42:17;29.50;;;8.30;;
4222;SDS011;2125;51.436;14.138;2023-02-12T01:47:45;33.83;;;10.23;;
4222;SDS011;2125;51.436;14.138;2023-02-12T01:50:13;35.70;;;9.97;;
4222;SDS011;2125;51.436;14.138;2023-02-12T01:52:42;30.13;;;9.60;;
4222;SDS011;2125;51.436;14.138;2023-02-12T01:55:16;33.43;;;10.17;;
4222;SDS011;2125;51.436;14.138;2023-02-12T01:57:44;23.10;;;8.47;;
4222;SDS011;2125;51.436;14.138;2023-02-12T02:00:14;26.73;;;7.60;;
4222;SDS011;2125;51.436;14.138;2023-02-12T02:02:43;36.70;;;10.87;;
4222;SDS011;2125;51.436;14.138;2023-02-12T02:05:14;20.10;;;6.90;;
4222;SDS011;2125;51.436;14.138;2023-02-12T02:07:48;28.00;;;10.00;;
4222;SDS011;2125;51.436;14.138;2023-02-12T02:10:14;38.47;;;11.73;;
4222;SDS011;2125;51.436;14.138;2023-02-12T02:12:41;27.77;;;9.30;;
4222;SDS011;2125;51.436;14.138;2023-02-12T02:15:25;27.33;;;9.87;;
4222;SDS011;2125;51.436;14.138;2023-02-12T02:17:57;33.17;;;11.10;;
4222;SDS011;2125;51.436;14.138;2023-02-12T02:20:41;35.57;;;9.27;;
4222;SDS011;2125;51.436;14.138;2023-02-12T02:23:42;37.20;;;11.37;;
4222;SDS011;2125;51.436;14.138;2023-02-12T02:29:22;31.10;;;9.53;;
4222;SDS011;2125;51.436;14.138;2023-02-12T02:32:05;37.17;;;11.60;;
4222;SDS011;2125;51.436;14.138;2023-02-12T02:34:36;31.60;;;9.80;;
4222;SDS011;2125;51.436;14.138;2023-02-12T02:37:07;26.37;;;9.53;;
4222;SDS011;2125;51.436;14.138;2023-02-12T02:39:42;35.00;;;9.57;;
4222;SDS011;2125;51.436;14.138;2023-02-12T02:42:14;32.93;;;10.10;;
4222;SDS011;2125;51.436;14.138;2023-02-12T02:48:09;25.03;;;8.47;;
4222;SDS011;2125;51.436;14.138;2023-02-12T02:50:39;37.20;;;12.53;;
4222;SDS011;2125;51.436;14.138;2023-02-12T02:53:12;37.07;;;10.70;;
4222;SDS011;2125;51.436;14.138;2023-02-12T02:55:42;29.80;;;9.10;;
4222;SDS011;2125;51.436;14.138;2023-02-12T02:58:13;31.57;;;10.13;;
4222;SDS011;2125;51.436;14.138;2023-02-12T03:00:43;39.50;;;10.23;;
4222;SDS011;2125;51.436;14.138;2023-02-12T03:03:15;34.60;;;11.43;;
4222;SDS011;2125;51.436;14.138;2023-02-12T03:05:48;34.70;;;10.30;;
4222;SDS011;2125;51.436;14.138;2023-02-12T03:08:18;35.27;;;11.10;;
4222;SDS011;2125;51.436;14.138;2023-02-12T03:10:50;34.63;;;11.00;;
4222;SDS011;2125;51.436;14.138;2023-02-12T03:13:22;39.17;;;12.20;;
4222;SDS011;2125;51.436;14.138;2023-02-12T03:15:53;33.70;;;9.67;;
4222;SDS011;2125;51.436;14.138;2023-02-12T03:18:26;27.67;;;9.70;;
4222;SDS011;2125;51.436;14.138;2023-02-12T03:20:57;34.80;;;10.50;;
4222;SDS011;2125;51.436;14.138;2023-02-12T03:23:28;34.00;;;10.00;;
4222;SDS011;2125;51.436;14.138;2023-02-12T03:26:03;27.60;;;8.93;;
4222;SDS011;2125;51.436;14.138;2023-02-12T03:28:33;37.93;;;12.50;;
4222;SDS011;2125;51.436;14.138;2023-02-12T03:31:03;28.50;;;9.47;;
4222;SDS011;2125;51.436;14.138;2023-02-12T03:33:39;32.73;;;8.27;;
4222;SDS011;2125;51.436;14.138;2023-02-12T03:36:14;36.83;;;9.87;;
4222;SDS011;2125;51.436;14.138;2023-02-12T03:38:50;27.93;;;9.10;;
4222;SDS011;2125;51.436;14.138;2023-02-12T03:41:21;28.70;;;9.73;;
4222;SDS011;2125;51.436;14.138;2023-02-12T03:43:51;29.87;;;9.20;;
4222;SDS011;2125;51.436;14.138;2023-02-12T03:46:20;31.10;;;9.63;;
4222;SDS011;2125;51.436;14.138;2023-02-12T03:48:57;29.77;;;9.70;;
4222;SDS011;2125;51.436;14.138;2023-02-12T03:51:27;28.43;;;8.60;;
4222;SDS011;2125;51.436;14.138;2023-02-12T03:53:58;37.37;;;10.33;;
4222;SDS011;2125;51.436;14.138;2023-02-12T03:56:28;31.03;;;10.67;;
4222;SDS011;2125;51.436;14.138;2023-02-12T03:59:00;30.37;;;10.20;;
4222;SDS011;2125;51.436;14.138;2023-02-12T04:01:27;30.50;;;9.07;;
4222;SDS011;2125;51.436;14.138;2023-02-12T04:03:54;29.47;;;8.67;;
4222;SDS011;2125;51.436;14.138;2023-02-12T04:06:24;27.00;;;9.43;;
4222;SDS011;2125;51.436;14.138;2023-02-12T04:08:53;26.80;;;8.67;;
4222;SDS011;2125;51.436;14.138;2023-02-12T04:11:24;32.13;;;9.40;;
4222;SDS011;2125;51.436;14.138;2023-02-12T04:14:04;28.00;;;8.97;;
4222;SDS011;2125;51.436;14.138;2023-02-12T04:16:40;25.27;;;9.17;;
4222;SDS011;2125;51.436;14.138;2023-02-12T04:19:15;29.10;;;9.83;;
4222;SDS011;2125;51.436;14.138;2023-02-12T04:21:52;31.03;;;9.50;;
4222;SDS011;2125;51.436;14.138;2023-02-12T04:24:31;34.60;;;10.00;;
4222;SDS011;2125;51.436;14.138;2023-02-12T04:27:08;25.30;;;8.57;;
4222;SDS011;2125;51.436;14.138;2023-02-12T04:29:42;35.33;;;9.93;;
4222;SDS011;2125;51.436;14.138;2023-02-12T04:32:14;31.90;;;8.90;;
4222;SDS011;2125;51.436;14.138;2023-02-12T04:34:47;31.53;;;9.83;;
4222;SDS011;2125;51.436;14.138;2023-02-12T04:37:17;32.90;;;8.90;;
4222;SDS011;2125;51.436;14.138;2023-02-12T04:39:47;24.27;;;8.23;;
4222;SDS011;2125;51.436;14.138;2023-02-12T04:42:16;25.93;;;8.77;;
4222;SDS011;2125;51.436;14.138;2023-02-12T04:44:43;31.80;;;7.77;;
4222;SDS011;2125;51.436;14.138;2023-02-12T04:47:10;27.37;;;9.27;;
4222;SDS011;2125;51.436;14.138;2023-02-12T04:49:37;27.97;;;9.47;;
4222;SDS011;2125;51.436;14.138;2023-02-12T04:52:05;27.67;;;9.70;;
4222;SDS011;2125;51.436;14.138;2023-02-12T04:54:32;50.30;;;9.73;;
4222;SDS011;2125;51.436;14.138;2023-02-12T04:56:59;30.23;;;10.10;;
4222;SDS011;2125;51.436;14.138;2023-02-12T04:59:26;32.73;;;10.50;;
4222;SDS011;2125;51.436;14.138;2023-02-12T05:01:52;33.87;;;10.33;;
4222;SDS011;2125;51.436;14.138;2023-02-12T05:04:19;33.97;;;10.47;;
4222;SDS011;2125;51.436;14.138;2023-02-12T05:06:46;25.23;;;8.60;;
4222;SDS011;2125;51.436;14.138;2023-02-12T05:09:14;26.00;;;9.10;;
4222;SDS011;2125;51.436;14.138;2023-02-12T05:11:42;29.20;;;9.03;;
4222;SDS011;2125;51.436;14.138;2023-02-12T05:14:09;36.83;;;9.30;;
4222;SDS011;2125;51.436;14.138;2023-02-12T05:16:36;24.47;;;7.83;;
4222;SDS011;2125;51.436;14.138;2023-02-12T05:19:03;30.90;;;8.00;;
4222;SDS011;2125;51.436;14.138;2023-02-12T05:21:29;31.00;;;8.50;;
4222;SDS011;2125;51.436;14.138;2023-02-12T05:23:56;33.77;;;9.50;;
4222;SDS011;2125;51.436;14.138;2023-02-12T05:26:24;30.03;;;9.40;;
4222;SDS011;2125;51.436;14.138;2023-02-12T05:28:50;29.07;;;8.73;;
4222;SDS011;2125;51.436;14.138;2023-02-12T05:31:24;40.23;;;9.30;;
4222;SDS011;2125;51.436;14.138;2023-02-12T05:33:51;28.60;;;8.43;;
4222;SDS011;2125;51.436;14.138;2023-02-12T05:36:19;30.17;;;8.80;;
4222;SDS011;2125;51.436;14.138;2023-02-12T05:38:47;31.80;;;8.17;;
4222;SDS011;2125;51.436;14.138;2023-02-12T05:41:15;25.77;;;8.60;;
4222;SDS011;2125;51.436;14.138;2023-02-12T05:43:45;26.03;;;8.33;;
4222;SDS011;2125;51.436;14.138;2023-02-12T05:46:12;24.07;;;8.30;;
4222;SDS011;2125;51.436;14.138;2023-02-12T05:48:39;25.27;;;8.20;;
4222;SDS011;2125;51.436;14.138;2023-02-12T05:51:06;25.77;;;7.97;;
4222;SDS011;2125;51.436;14.138;2023-02-12T05:53:34;31.73;;;7.40;;
4222;SDS011;2125;51.436;14.138;2023-02-12T05:56:06;29.73;;;8.37;;
4222;SDS011;2125;51.436;14.138;2023-02-12T05:58:33;21.80;;;7.47;;
4222;SDS011;2125;51.436;14.138;2023-02-12T06:01:02;26.93;;;7.40;;
4222;SDS011;2125;51.436;14.138;2023-02-12T06:03:33;27.10;;;8.30;;
4222;SDS011;2125;51.436;14.138;2023-02-12T06:06:00;25.37;;;7.47;;
4222;SDS011;2125;51.436;14.138;2023-02-12T06:08:27;24.70;;;7.50;;
4222;SDS011;2125;51.436;14.138;2023-02-12T06:10:53;23.43;;;7.27;;
4222;SDS011;2125;51.436;14.138;2023-02-12T06:13:20;22.20;;;7.37;;
4222;SDS011;2125;51.436;14.138;2023-02-12T06:15:46;25.33;;;8.30;;
4222;SDS011;2125;51.436;14.138;2023-02-12T06:18:14;36.10;;;8.60;;
4222;SDS011;2125;51.436;14.138;2023-02-12T06:20:41;31.23;;;8.77;;
4222;SDS011;2125;51.436;14.138;2023-02-12T06:23:07;18.50;;;6.60;;
4222;SDS011;2125;51.436;14.138;2023-02-12T06:25:34;23.53;;;7.77;;
4222;SDS011;2125;51.436;14.138;2023-02-12T06:28:01;26.87;;;8.77;;
4222;SDS011;2125;51.436;14.138;2023-02-12T06:30:28;20.00;;;6.87;;
4222;SDS011;2125;51.436;14.138;2023-02-12T06:32:55;28.37;;;8.23;;
4222;SDS011;2125;51.436;14.138;2023-02-12T06:35:23;25.73;;;7.60;;
4222;SDS011;2125;51.436;14.138;2023-02-12T06:37:50;26.50;;;7.40;;
4222;SDS011;2125;51.436;14.138;2023-02-12T06:40:17;28.27;;;9.10;;
4222;SDS011;2125;51.436;14.138;2023-02-12T06:42:43;23.03;;;7.43;;
4222;SDS011;2125;51.436;14.138;2023-02-12T06:45:10;25.57;;;7.47;;
4222;SDS011;2125;51.436;14.138;2023-02-12T06:47:36;27.63;;;8.17;;
4222;SDS011;2125;51.436;14.138;2023-02-12T06:50:03;30.33;;;8.53;;
4222;SDS011;2125;51.436;14.138;2023-02-12T06:52:32;30.50;;;9.57;;
4222;SDS011;2125;51.436;14.138;2023-02-12T06:54:59;26.77;;;7.13;;
4222;SDS011;2125;51.436;14.138;2023-02-12T06:57:25;23.10;;;7.17;;
4222;SDS011;2125;51.436;14.138;2023-02-12T06:59:53;23.10;;;7.50;;
4222;SDS011;2125;51.436;14.138;2023-02-12T07:02:20;26.33;;;8.67;;
4222;SDS011;2125;51.436;14.138;2023-02-12T07:04:46;27.27;;;7.90;;
4222;SDS011;2125;51.436;14.138;2023-02-12T07:07:13;23.63;;;6.90;;
4222;SDS011;2125;51.436;14.138;2023-02-12T07:09:41;23.27;;;7.80;;
4222;SDS011;2125;51.436;14.138;2023-02-12T07:12:07;23.63;;;7.23;;
4222;SDS011;2125;51.436;14.138;2023-02-12T07:14:34;26.37;;;7.97;;
4222;SDS011;2125;51.436;14.138;2023-02-12T07:17:01;29.40;;;8.70;;
4222;SDS011;2125;51.436;14.138;2023-02-12T07:19:29;29.47;;;8.93;;
4222;SDS011;2125;51.436;14.138;2023-02-12T07:21:57;23.77;;;7.60;;
4222;SDS011;2125;51.436;14.138;2023-02-12T07:24:23;25.77;;;8.07;;
4222;SDS011;2125;51.436;14.138;2023-02-12T07:26:51;24.33;;;7.50;;
4222;SDS011;2125;51.436;14.138;2023-02-12T07:29:18;27.00;;;7.27;;
4222;SDS011;2125;51.436;14.138;2023-02-12T07:31:44;28.50;;;8.00;;
4222;SDS011;2125;51.436;14.138;2023-02-12T07:34:11;21.87;;;7.67;;
4222;SDS011;2125;51.436;14.138;2023-02-12T07:36:38;27.03;;;8.80;;
4222;SDS011;2125;51.436;14.138;2023-02-12T07:39:04;26.80;;;7.47;;
4222;SDS011;2125;51.436;14.138;2023-02-12T07:41:32;31.77;;;9.50;;
4222;SDS011;2125;51.436;14.138;2023-02-12T07:44:02;36.00;;;9.73;;
4222;SDS011;2125;51.436;14.138;2023-02-12T07:46:32;29.60;;;9.20;;
4222;SDS011;2125;51.436;14.138;2023-02-12T07:49:00;30.30;;;9.23;;
4222;SDS011;2125;51.436;14.138;2023-02-12T07:51:29;26.90;;;8.80;;
4222;SDS011;2125;51.436;14.138;2023-02-12T07:53:57;30.57;;;9.40;;
4222;SDS011;2125;51.436;14.138;2023-02-12T07:56:26;28.50;;;8.53;;
4222;SDS011;2125;51.436;14.138;2023-02-12T07:58:55;30.90;;;10.13;;
4222;SDS011;2125;51.436;14.138;2023-02-12T08:01:25;40.53;;;10.27;;
4222;SDS011;2125;51.436;14.138;2023-02-12T08:03:53;37.57;;;9.13;;
4222;SDS011;2125;51.436;14.138;2023-02-12T08:06:25;33.00;;;9.27;;
4222;SDS011;2125;51.436;14.138;2023-02-12T08:08:57;29.20;;;9.17;;
4222;SDS011;2125;51.436;14.138;2023-02-12T08:11:26;32.27;;;10.30;;
4222;SDS011;2125;51.436;14.138;2023-02-12T08:13:53;23.30;;;8.80;;
4222;SDS011;2125;51.436;14.138;2023-02-12T08:16:21;24.60;;;8.40;;
4222;SDS011;2125;51.436;14.138;2023-02-12T08:18:51;29.63;;;9.60;;
4222;SDS011;2125;51.436;14.138;2023-02-12T08:21:19;30.23;;;8.70;;
4222;SDS011;2125;51.436;14.138;2023-02-12T08:23:47;31.53;;;8.57;;
4222;SDS011;2125;51.436;14.138;2023-02-12T08:26:16;32.30;;;9.77;;
4222;SDS011;2125;51.436;14.138;2023-02-12T08:28:45;27.57;;;9.27;;
4222;SDS011;2125;51.436;14.138;2023-02-12T08:31:14;34.27;;;9.50;;
4222;SDS011;2125;51.436;14.138;2023-02-12T08:33:44;29.27;;;9.60;;
4222;SDS011;2125;51.436;14.138;2023-02-12T08:36:13;32.20;;;9.70;;
4222;SDS011;2125;51.436;14.138;2023-02-12T08:38:41;33.40;;;10.23;;
4222;SDS011;2125;51.436;14.138;2023-02-12T08:41:10;31.67;;;9.60;;
4222;SDS011;2125;51.436;14.138;2023-02-12T08:43:38;35.17;;;10.33;;
4222;SDS011;2125;51.436;14.138;2023-02-12T08:46:07;28.90;;;9.47;;
4222;SDS011;2125;51.436;14.138;2023-02-12T08:48:35;29.43;;;10.13;;
4222;SDS011;2125;51.436;14.138;2023-02-12T08:51:04;31.67;;;9.70;;
4222;SDS011;2125;51.436;14.138;2023-02-12T08:53:33;34.57;;;9.37;;
4222;SDS011;2125;51.436;14.138;2023-02-12T08:56:01;32.40;;;10.00;;
4222;SDS011;2125;51.436;14.138;2023-02-12T08:58:27;30.97;;;10.13;;
4222;SDS011;2125;51.436;14.138;2023-02-12T09:00:54;33.07;;;10.73;;
4222;SDS011;2125;51.436;14.138;2023-02-12T09:03:21;31.07;;;10.33;;
4222;SDS011;2125;51.436;14.138;2023-02-12T09:05:48;42.40;;;9.30;;
4222;SDS011;2125;51.436;14.138;2023-02-12T09:08:14;36.80;;;10.63;;
4222;SDS011;2125;51.436;14.138;2023-02-12T09:10:43;32.70;;;9.47;;
4222;SDS011;2125;51.436;14.138;2023-02-12T09:13:11;40.87;;;10.90;;
4222;SDS011;2125;51.436;14.138;2023-02-12T09:15:38;27.37;;;8.97;;
4222;SDS011;2125;51.436;14.138;2023-02-12T09:18:06;27.10;;;10.10;;
4222;SDS011;2125;51.436;14.138;2023-02-12T09:20:33;34.50;;;10.10;;
4222;SDS011;2125;51.436;14.138;2023-02-12T09:23:02;28.43;;;10.10;;
4222;SDS011;2125;51.436;14.138;2023-02-12T09:25:29;37.07;;;10.27;;
4222;SDS011;2125;51.436;14.138;2023-02-12T09:27:59;34.00;;;11.23;;
4222;SDS011;2125;51.436;14.138;2023-02-12T09:30:26;30.03;;;9.60;;
4222;SDS011;2125;51.436;14.138;2023-02-12T09:32:53;38.20;;;8.60;;
4222;SDS011;2125;51.436;14.138;2023-02-12T09:35:20;32.50;;;9.40;;
4222;SDS011;2125;51.436;14.138;2023-02-12T09:37:47;39.27;;;10.10;;
4222;SDS011;2125;51.436;14.138;2023-02-12T09:40:16;46.67;;;9.87;;
4222;SDS011;2125;51.436;14.138;2023-02-12T09:42:55;30.70;;;9.40;;
4222;SDS011;2125;51.436;14.138;2023-02-12T09:45:35;28.83;;;9.10;;
4222;SDS011;2125;51.436;14.138;2023-02-12T09:48:11;29.60;;;9.83;;
4222;SDS011;2125;51.436;14.138;2023-02-12T09:51:10;35.80;;;9.60;;
4222;SDS011;2125;51.436;14.138;2023-02-12T09:53:44;29.17;;;8.73;;
4222;SDS011;2125;51.436;14.138;2023-02-12T09:56:14;25.70;;;9.23;;
4222;SDS011;2125;51.436;14.138;2023-02-12T09:58:45;30.17;;;9.40;;
4222;SDS011;2125;51.436;14.138;2023-02-12T10:01:18;30.33;;;8.20;;
4222;SDS011;2125;51.436;14.138;2023-02-12T10:03:47;30.67;;;9.93;;
4222;SDS011;2125;51.436;14.138;2023-02-12T10:06:15;33.90;;;10.60;;
4222;SDS011;2125;51.436;14.138;2023-02-12T10:08:54;37.33;;;10.20;;
4222;SDS011;2125;51.436;14.138;2023-02-12T10:11:29;25.17;;;7.73;;
4222;SDS011;2125;51.436;14.138;2023-02-12T10:14:10;30.90;;;8.57;;
4222;SDS011;2125;51.436;14.138;2023-02-12T10:17:07;30.80;;;7.80;;
4222;SDS011;2125;51.436;14.138;2023-02-12T10:20:02;23.60;;;8.30;;
4222;SDS011;2125;51.436;14.138;2023-02-12T10:22:54;20.17;;;7.00;;
4222;SDS011;2125;51.436;14.138;2023-02-12T10:25:35;20.23;;;7.17;;
4222;SDS011;2125;51.436;14.138;2023-02-12T10:28:10;23.50;;;6.93;;
4222;SDS011;2125;51.436;14.138;2023-02-12T10:30:43;20.27;;;6.37;;
4222;SDS011;2125;51.436;14.138;2023-02-12T10:33:15;21.63;;;7.73;;
4222;SDS011;2125;51.436;14.138;2023-02-12T10:35:46;23.60;;;6.43;;
4222;SDS011;2125;51.436;14.138;2023-02-12T10:38:16;15.37;;;5.50;;
4222;SDS011;2125;51.436;14.138;2023-02-12T10:40:46;20.53;;;6.30;;
4222;SDS011;2125;51.436;14.138;2023-02-12T10:43:14;13.67;;;6.00;;
4222;SDS011;2125;51.436;14.138;2023-02-12T10:45:42;22.00;;;6.50;;
4222;SDS011;2125;51.436;14.138;2023-02-12T10:48:10;20.00;;;6.57;;
4222;SDS011;2125;51.436;14.138;2023-02-12T10:50:46;21.73;;;6.60;;
4222;SDS011;2125;51.436;14.138;2023-02-12T10:53:19;19.33;;;5.90;;
4222;SDS011;2125;51.436;14.138;2023-02-12T10:55:47;20.13;;;6.57;;
4222;SDS011;2125;51.436;14.138;2023-02-12T10:58:18;26.27;;;6.30;;
4222;SDS011;2125;51.436;14.138;2023-02-12T11:00:55;20.37;;;7.57;;
4222;SDS011;2125;51.436;14.138;2023-02-12T11:03:26;22.90;;;6.50;;
4222;SDS011;2125;51.436;14.138;2023-02-12T11:05:54;19.73;;;6.63;;
4222;SDS011;2125;51.436;14.138;2023-02-12T11:08:25;15.10;;;5.47;;
4222;SDS011;2125;51.436;14.138;2023-02-12T11:10:56;19.50;;;6.53;;
4222;SDS011;2125;51.436;14.138;2023-02-12T11:13:28;22.53;;;6.30;;
4222;SDS011;2125;51.436;14.138;2023-02-12T11:15:57;18.07;;;6.00;;
4222;SDS011;2125;51.436;14.138;2023-02-12T11:18:25;10.90;;;4.47;;
4222;SDS011;2125;51.436;14.138;2023-02-12T11:20:56;14.20;;;4.67;;
4222;SDS011;2125;51.436;14.138;2023-02-12T11:23:26;14.33;;;4.83;;
4222;SDS011;2125;51.436;14.138;2023-02-12T11:25:55;16.10;;;5.60;;
4222;SDS011;2125;51.436;14.138;2023-02-12T11:28:24;15.67;;;5.17;;
4222;SDS011;2125;51.436;14.138;2023-02-12T11:30:53;18.33;;;5.37;;
4222;SDS011;2125;51.436;14.138;2023-02-12T11:33:24;12.30;;;4.67;;
4222;SDS011;2125;51.436;14.138;2023-02-12T11:35:53;18.53;;;5.17;;
4222;SDS011;2125;51.436;14.138;2023-02-12T11:38:23;13.10;;;4.40;;
4222;SDS011;2125;51.436;14.138;2023-02-12T11:40:58;13.23;;;4.70;;
4222;SDS011;2125;51.436;14.138;2023-02-12T11:43:27;14.53;;;3.67;;
4222;SDS011;2125;51.436;14.138;2023-02-12T11:45:55;15.00;;;4.77;;
4222;SDS011;2125;51.436;14.138;2023-02-12T11:48:26;9.57;;;4.37;;
4222;SDS011;2125;51.436;14.138;2023-02-12T11:50:57;10.87;;;4.20;;
4222;SDS011;2125;51.436;14.138;2023-02-12T11:53:26;19.00;;;3.93;;
4222;SDS011;2125;51.436;14.138;2023-02-12T11:55:56;15.50;;;4.23;;
4222;SDS011;2125;51.436;14.138;2023-02-12T11:58:25;10.80;;;3.20;;
4222;SDS011;2125;51.436;14.138;2023-02-12T12:00:53;17.40;;;4.50;;
4222;SDS011;2125;51.436;14.138;2023-02-12T12:03:27;12.67;;;3.53;;
4222;SDS011;2125;51.436;14.138;2023-02-12T12:06:00;12.13;;;3.93;;
4222;SDS011;2125;51.436;14.138;2023-02-12T12:08:32;17.30;;;4.00;;
4222;SDS011;2125;51.436;14.138;2023-02-12T12:11:05;19.23;;;4.70;;
4222;SDS011;2125;51.436;14.138;2023-02-12T12:13:40;8.70;;;3.23;;
4222;SDS011;2125;51.436;14.138;2023-02-12T12:16:12;13.30;;;4.00;;
4222;SDS011;2125;51.436;14.138;2023-02-12T12:19:03;7.70;;;3.10;;
4222;SDS011;2125;51.436;14.138;2023-02-12T12:21:53;8.60;;;3.43;;
4222;SDS011;2125;51.436;14.138;2023-02-12T12:24:25;13.53;;;3.90;;
4222;SDS011;2125;51.436;14.138;2023-02-12T12:26:56;6.33;;;2.57;;
4222;SDS011;2125;51.436;14.138;2023-02-12T12:29:40;8.70;;;3.13;;
4222;SDS011;2125;51.436;14.138;2023-02-12T12:32:11;10.83;;;2.70;;
4222;SDS011;2125;51.436;14.138;2023-02-12T12:34:44;12.97;;;3.47;;
4222;SDS011;2125;51.436;14.138;2023-02-12T12:37:16;8.67;;;3.50;;
4222;SDS011;2125;51.436;14.138;2023-02-12T12:39:56;9.73;;;2.77;;
4222;SDS011;2125;51.436;14.138;2023-02-12T12:42:56;14.40;;;3.47;;
4222;SDS011;2125;51.436;14.138;2023-02-12T12:45:37;8.33;;;3.17;;
4222;SDS011;2125;51.436;14.138;2023-02-12T12:48:23;8.97;;;2.67;;
4222;SDS011;2125;51.436;14.138;2023-02-12T12:51:04;7.57;;;3.33;;
4222;SDS011;2125;51.436;14.138;2023-02-12T12:53:45;11.93;;;2.77;;
4222;SDS011;2125;51.436;14.138;2023-02-12T12:56:22;18.43;;;3.70;;
4222;SDS011;2125;51.436;14.138;2023-02-12T12:59:04;12.40;;;3.57;;
4222;SDS011;2125;51.436;14.138;2023-02-12T13:04:51;6.77;;;3.40;;
4222;SDS011;2125;51.436;14.138;2023-02-12T13:07:40;16.60;;;4.67;;
4222;SDS011;2125;51.436;14.138;2023-02-12T13:10:17;17.07;;;4.23;;
4222;SDS011;2125;51.436;14.138;2023-02-12T13:12:54;15.93;;;3.70;;
4222;SDS011;2125;51.436;14.138;2023-02-12T13:15:30;16.77;;;4.27;;
4222;SDS011;2125;51.436;14.138;2023-02-12T13:18:03;11.57;;;3.67;;
4222;SDS011;2125;51.436;14.138;2023-02-12T13:20:40;9.93;;;4.17;;
4222;SDS011;2125;51.436;14.138;2023-02-12T13:23:15;17.10;;;5.50;;
4222;SDS011;2125;51.436;14.138;2023-02-12T13:25:48;12.10;;;4.60;;
4222;SDS011;2125;51.436;14.138;2023-02-12T13:28:22;15.07;;;4.10;;
4222;SDS011;2125;51.436;14.138;2023-02-12T13:30:54;23.70;;;4.87;;
4222;SDS011;2125;51.436;14.138;2023-02-12T13:33:22;16.27;;;4.83;;
4222;SDS011;2125;51.436;14.138;2023-02-12T13:35:53;11.77;;;4.43;;
4222;SDS011;2125;51.436;14.138;2023-02-12T13:38:26;16.83;;;4.87;;
4222;SDS011;2125;51.436;14.138;2023-02-12T13:40:57;17.97;;;4.80;;
4222;SDS011;2125;51.436;14.138;2023-02-12T13:43:35;14.77;;;5.10;;
4222;SDS011;2125;51.436;14.138;2023-02-12T13:46:10;12.50;;;4.70;;
4222;SDS011;2125;51.436;14.138;2023-02-12T13:48:46;21.33;;;6.30;;
4222;SDS011;2125;51.436;14.138;2023-02-12T13:51:20;17.73;;;6.03;;
4222;SDS011;2125;51.436;14.138;2023-02-12T13:54:02;15.00;;;5.67;;
4222;SDS011;2125;51.436;14.138;2023-02-12T13:56:40;27.13;;;6.07;;
4222;SDS011;2125;51.436;14.138;2023-02-12T14:02:25;20.80;;;5.60;;
4222;SDS011;2125;51.436;14.138;2023-02-12T14:05:14;18.83;;;5.63;;
4222;SDS011;2125;51.436;14.138;2023-02-12T14:07:52;17.13;;;5.07;;
4222;SDS011;2125;51.436;14.138;2023-02-12T14:10:23;15.70;;;6.27;;
4222;SDS011;2125;51.436;14.138;2023-02-12T14:12:53;19.00;;;7.07;;
4222;SDS011;2125;51.436;14.138;2023-02-12T14:15:29;21.80;;;6.10;;
4222;SDS011;2125;51.436;14.138;2023-02-12T14:18:06;21.30;;;7.03;;
4222;SDS011;2125;51.436;14.138;2023-02-12T14:20:48;16.10;;;5.40;;
4222;SDS011;2125;51.436;14.138;2023-02-12T14:27:20;18.50;;;5.97;;
4222;SDS011;2125;51.436;14.138;2023-02-12T14:29:59;17.83;;;7.03;;
4222;SDS011;2125;51.436;14.138;2023-02-12T14:32:54;17.23;;;5.63;;
4222;SDS011;2125;51.436;14.138;2023-02-12T14:35:42;22.13;;;5.97;;
4222;SDS011;2125;51.436;14.138;2023-02-12T14:41:14;18.90;;;5.70;;
4222;SDS011;2125;51.436;14.138;2023-02-12T14:47:02;20.77;;;6.50;;
4222;SDS011;2125;51.436;14.138;2023-02-12T14:49:32;18.63;;;6.40;;
4222;SDS011;2125;51.436;14.138;2023-02-12T14:52:02;18.80;;;5.50;;
4222;SDS011;2125;51.436;14.138;2023-02-12T14:54:40;14.77;;;5.07;;
4222;SDS011;2125;51.436;14.138;2023-02-12T14:57:08;16.57;;;6.67;;
4222;SDS011;2125;51.436;14.138;2023-02-12T14:59:44;19.07;;;5.43;;
4222;SDS011;2125;51.436;14.138;2023-02-12T15:02:16;21.10;;;6.57;;
4222;SDS011;2125;51.436;14.138;2023-02-12T15:04:48;16.27;;;5.20;;
4222;SDS011;2125;51.436;14.138;2023-02-12T15:07:19;16.13;;;5.43;;
4222;SDS011;2125;51.436;14.138;2023-02-12T15:09:54;15.80;;;5.60;;
4222;SDS011;2125;51.436;14.138;2023-02-12T15:12:31;21.73;;;6.37;;
4222;SDS011;2125;51.436;14.138;2023-02-12T15:15:01;18.73;;;6.43;;
4222;SDS011;2125;51.436;14.138;2023-02-12T15:17:33;20.83;;;6.70;;
4222;SDS011;2125;51.436;14.138;2023-02-12T15:20:05;15.77;;;5.87;;
4222;SDS011;2125;51.436;14.138;2023-02-12T15:22:39;19.77;;;6.90;;
4222;SDS011;2125;51.436;14.138;2023-02-12T15:25:16;16.97;;;5.70;;
4222;SDS011;2125;51.436;14.138;2023-02-12T15:27:48;23.03;;;6.83;;
4222;SDS011;2125;51.436;14.138;2023-02-12T15:30:16;15.73;;;5.77;;
4222;SDS011;2125;51.436;14.138;2023-02-12T15:32:45;19.40;;;6.30;;
4222;SDS011;2125;51.436;14.138;2023-02-12T15:35:19;19.87;;;5.97;;